Météo

Actualisé à 9h00, Lille

icon

T : 5 °C / H : 87 %
Pression : 1024 Hpa
Vent de nord : 26 Km/h
Faible Pluie
Nuages épars à 1600 pieds
Nuages fragmentés à 2400 pieds

2024/04/21 08:00 LFQQ 210800Z AUTO 36014KT 330V030 9000 -RA SCT016/// BKN024/// OVC034/// ///TCU 05/03 Q1024 TEMPO 34018G28KT 2500 SHRA SCT009 BKN014T

Actualisé à 1h, Lille

icon

T : 5 °C / H : 87 %
Pression : Hpa
Vent ? : 26 Km/h

ciel clair

CU

Mots clés

Internet web infographiste flyers illustrateur graphiste webmaster PAO assistance informatique logo image invitation affiche création réalisation conception site vitrine voeux carte visite publication publicité impression plaquette charte graphique identité visuelle maintenance freelance


CSS Valide ! Valid HTML 5.0
callicom.gif flo.jpg
logo-5.jpg logo.jpg
logo_Flodp2.jpg logo_les-dauphines-de-fretin1_couleur-Nb.jpg
sofetec.jpg